Time;durP1;ratioP1;P1;durP2;ratioP2;P2;SDS_P1;SDS_P2;PMS_P1;PMS_P2;Temp;Humidity;BMP_temperature;BMP_pressure;BME280_temperature;BME280_humidity;BME280_pressure;Samples;Min_cycle;Max_cycle;Signal;HPM_P1;HPM_P2
2021/12/31 00:00:30;;;;;;;3.50;2.00;;;;;;;17.21;57.77;99968.44;4979090;28;20113;-77
2021/12/31 00:02:55;;;;;;;2.50;1.60;;;;;;;17.22;57.96;99971.03;4979120;28;20466;-77
2021/12/31 00:05:21;;;;;;;2.67;1.73;;;;;;;17.23;57.62;99970.13;4961805;28;20031;-77
2021/12/31 00:07:47;;;;;;;3.13;2.08;;;;;;;17.21;57.89;99969.31;4979971;28;20485;-77
2021/12/31 00:10:14;;;;;;;3.05;2.00;;;;;;;17.22;57.68;99972.81;4980269;28;20362;-77
2021/12/31 00:12:41;;;;;;;2.40;1.73;;;;;;;17.21;57.72;99979.00;4963548;28;20161;-77
2021/12/31 00:15:07;;;;;;;4.00;2.30;;;;;;;17.20;57.76;99978.16;4963586;28;20037;-77
2021/12/31 00:17:33;;;;;;;2.90;2.00;;;;;;;17.23;57.49;99971.91;4978822;28;20026;-77
2021/12/31 00:20:06;;;;;;;3.67;2.03;;;;;;;17.18;57.50;99954.47;4978950;28;20037;-77
2021/12/31 00:25:03;;;;;;;3.00;1.83;;;;;;;17.18;57.79;99970.31;4978445;28;20429;-77
2021/12/31 00:27:29;;;;;;;3.17;1.92;;;;;;;17.17;57.76;99957.16;4978406;28;20493;-77
2021/12/31 00:29:54;;;;;;;4.45;2.10;;;;;;;17.16;57.34;99956.28;4963606;28;20038;-77
2021/12/31 00:32:20;;;;;;;3.50;2.20;;;;;;;17.17;57.46;99946.63;4980335;28;20073;-77
2021/12/31 00:34:46;;;;;;;3.67;1.85;;;;;;;17.15;57.52;99946.66;4961454;28;20077;-77
2021/12/31 00:37:12;;;;;;;3.20;2.20;;;;;;;17.15;57.70;99941.38;4978332;28;20474;-76
2021/12/31 00:39:37;;;;;;;3.60;2.10;;;;;;;17.12;57.62;99940.66;4962766;28;20454;-77
2021/12/31 00:42:04;;;;;;;3.58;2.10;;;;;;;17.11;57.63;99939.81;4980211;28;20434;-77
2021/12/31 00:44:29;;;;;;;3.25;1.90;;;;;;;17.09;57.88;99949.53;4973250;28;20070;-77
2021/12/31 00:46:55;;;;;;;3.00;1.83;;;;;;;17.12;57.50;99946.78;4962423;28;20035;-77
2021/12/31 00:49:21;;;;;;;3.80;2.40;;;;;;;17.12;57.67;99949.44;4979538;28;20113;-77
2021/12/31 00:51:47;;;;;;;3.28;1.77;;;;;;;17.13;57.66;99952.91;4962831;28;20046;-77
2021/12/31 00:54:12;;;;;;;3.47;1.98;;;;;;;17.12;57.61;99949.44;4978168;28;20129;-78
2021/12/31 00:56:38;;;;;;;2.88;1.80;;;;;;;17.12;57.66;99949.44;4977801;28;20465;-77
2021/12/31 00:59:04;;;;;;;4.00;2.10;;;;;;;17.09;57.53;99941.63;4978033;28;20035;-78
2021/12/31 01:01:31;;;;;;;4.47;2.20;;;;;;;17.10;57.50;99943.34;4979164;28;20089;-77
2021/12/31 01:03:57;;;;;;;2.92;1.83;;;;;;;17.09;57.50;99949.53;4962256;28;20446;-77
2021/12/31 01:06:23;;;;;;;4.97;2.60;;;;;;;17.08;57.22;99937.25;4962720;28;20031;-77
2021/12/31 01:08:48;;;;;;;3.05;1.70;;;;;;;17.05;57.43;99942.66;4962648;28;20089;-77
2021/12/31 01:11:14;;;;;;;3.22;2.03;;;;;;;17.06;57.24;99944.38;4977502;28;20023;-77
2021/12/31 01:14:00;;;;;;;3.70;2.30;;;;;;;17.04;57.31;99940.91;4977867;28;20031;-77
2021/12/31 01:16:35;;;;;;;3.47;2.17;;;;;;;17.06;57.74;99944.38;4977583;28;20126;-76
2021/12/31 01:21:27;;;;;;;3.78;2.35;;;;;;;17.04;57.43;99933.00;4978594;28;20270;-76
2021/12/31 01:23:53;;;;;;;3.75;2.30;;;;;;;17.03;57.69;99939.22;4979212;28;20521;-77
2021/12/31 01:26:19;;;;;;;2.95;1.98;;;;;;;17.00;57.56;99941.94;4959988;28;20034;-77
2021/12/31 01:28:45;;;;;;;2.53;1.92;;;;;;;17.01;57.54;99946.28;4960276;28;20023;-76
2021/12/31 01:31:11;;;;;;;3.05;1.77;;;;;;;17.00;57.34;99944.56;4977219;28;20030;-76
2021/12/31 01:33:37;;;;;;;3.38;2.00;;;;;;;17.00;57.37;99947.22;4977251;28;20042;-77
2021/12/31 01:36:05;;;;;;;3.05;2.05;;;;;;;17.01;57.43;99946.28;4979386;28;20047;-77
2021/12/31 01:38:30;;;;;;;3.28;2.00;;;;;;;17.00;57.47;99949.84;4990162;28;20041;-77
2021/12/31 01:40:56;;;;;;;3.88;2.15;;;;;;;16.99;57.48;99948.09;4961004;28;20034;-77
2021/12/31 01:43:21;;;;;;;3.05;1.98;;;;;;;16.96;57.56;99943.84;4977941;28;20358;-77
2021/12/31 01:45:54;;;;;;;3.00;1.80;;;;;;;16.99;57.47;99950.75;4978047;28;20098;-76
2021/12/31 01:48:27;;;;;;;3.75;2.20;;;;;;;16.99;57.41;99954.25;4977976;28;20435;-77
2021/12/31 01:50:53;;;;;;;3.55;2.20;;;;;;;16.99;57.58;99958.66;4978426;28;20030;-76
2021/12/31 01:53:26;;;;;;;3.25;1.83;;;;;;;16.99;57.69;99961.28;4961291;28;20037;-77
2021/12/31 01:55:55;;;;;;;3.00;2.00;;;;;;;16.98;57.48;99956.94;4977036;28;20418;-77
2021/12/31 01:58:23;;;;;;;3.13;1.70;;;;;;;17.00;57.42;99960.41;4976928;28;20049;-77
2021/12/31 02:00:48;;;;;;;3.05;1.85;;;;;;;16.99;57.50;99963.91;4959747;28;20505;-77
2021/12/31 02:03:17;;;;;;;3.00;1.92;;;;;;;16.96;57.25;99964.94;4977432;28;20026;-77
2021/12/31 02:05:42;;;;;;;3.13;2.00;;;;;;;16.98;57.62;99967.47;4961613;28;20069;-77
2021/12/31 02:08:08;;;;;;;3.45;2.08;;;;;;;16.97;57.60;99968.41;4978413;28;20054;-77
2021/12/31 02:10:33;;;;;;;2.40;1.60;;;;;;;16.95;57.62;99964.97;4978963;28;20481;-77
2021/12/31 02:12:59;;;;;;;2.90;1.58;;;;;;;16.96;57.30;99961.41;4960608;28;20351;-77
2021/12/31 02:15:26;;;;;;;2.60;1.58;;;;;;;16.93;57.60;99954.47;4977635;28;20105;-77
2021/12/31 02:17:53;;;;;;;3.15;1.92;;;;;;;16.95;57.46;99957.91;4961047;28;20453;-77
2021/12/31 02:20:20;;;;;;;2.85;1.90;;;;;;;16.92;57.06;99948.31;4961002;28;20076;-77
2021/12/31 02:22:55;;;;;;;2.55;1.70;;;;;;;16.92;57.34;99953.59;4961539;28;20035;-77
2021/12/31 02:25:24;;;;;;;3.40;1.95;;;;;;;16.90;57.53;99944.91;4978757;28;20354;-77
2021/12/31 02:27:50;;;;;;;3.75;2.15;;;;;;;16.90;57.46;99947.53;4960933;28;20050;-77
2021/12/31 02:30:15;;;;;;;3.33;1.83;;;;;;;16.92;57.11;99945.69;4982241;28;20339;-77
2021/12/31 02:32:41;;;;;;;2.45;1.65;;;;;;;16.92;57.26;99937.78;4984743;28;20048;-77
2021/12/31 02:35:09;;;;;;;2.67;1.63;;;;;;;16.94;57.02;99940.38;4977306;28;20030;-77
2021/12/31 02:37:34;;;;;;;2.83;1.67;;;;;;;16.89;57.34;99940.53;4977783;28;20057;-77
2021/12/31 02:40:09;;;;;;;3.22;1.80;;;;;;;16.87;57.39;99942.38;4978689;28;20113;-77
2021/12/31 02:42:35;;;;;;;3.03;1.88;;;;;;;16.88;57.31;99945.88;4962188;28;20125;-77
2021/12/31 02:45:00;;;;;;;2.33;1.48;;;;;;;16.85;57.15;99946.84;4976821;28;20414;-77
2021/12/31 02:47:26;;;;;;;3.00;1.88;;;;;;;16.86;57.54;99947.72;4966168;28;20058;-77
2021/12/31 02:49:53;;;;;;;2.97;1.80;;;;;;;16.85;57.37;99936.28;4940760;29;20478;-77
2021/12/31 02:52:19;;;;;;;2.60;1.60;;;;;;;16.83;57.34;99948.69;4958117;29;20431;-77
2021/12/31 02:54:49;;;;;;;2.35;1.50;;;;;;;16.83;57.33;99946.03;4941292;29;20090;-77
2021/12/31 02:57:16;;;;;;;2.60;1.70;;;;;;;16.85;57.15;99938.94;4942321;29;20035;-77
2021/12/31 02:59:43;;;;;;;2.65;1.52;;;;;;;16.81;57.30;99939.97;4957066;28;20050;-77
2021/12/31 03:02:09;;;;;;;3.30;1.92;;;;;;;16.82;57.25;99933.78;4957943;29;20031;-77
2021/12/31 03:04:36;;;;;;;2.65;1.50;;;;;;;16.82;57.12;99938.19;4957550;29;20031;-77
2021/12/31 03:07:04;;;;;;;1.95;1.52;;;;;;;16.80;57.12;99942.66;4958173;29;20197;-77
2021/12/31 03:09:32;;;;;;;3.45;1.92;;;;;;;16.76;57.39;99931.38;4957909;29;20102;-77
2021/12/31 03:11:58;;;;;;;2.42;1.60;;;;;;;16.78;57.27;99940.06;4958578;28;20038;-77
2021/12/31 03:14:26;;;;;;;3.28;1.85;;;;;;;16.80;57.13;99946.13;4960809;29;20037;-77
2021/12/31 03:16:52;;;;;;;2.40;1.45;;;;;;;16.81;57.16;99949.66;4963529;28;20427;-77
2021/12/31 03:19:20;;;;;;;2.53;1.50;;;;;;;16.81;57.08;99950.53;4960869;29;20115;-77
2021/12/31 03:21:45;;;;;;;2.65;1.63;;;;;;;16.81;57.23;99950.53;4944565;29;20059;-77
2021/12/31 03:24:11;;;;;;;2.88;1.90;;;;;;;16.79;57.41;99952.31;4948111;29;20106;-77
2021/12/31 03:26:36;;;;;;;2.53;1.55;;;;;;;16.72;57.18;99945.56;4952019;29;20134;-77
2021/12/31 03:29:02;;;;;;;1.85;1.30;;;;;;;16.77;57.31;99944.47;4945173;29;20031;-77
2021/12/31 03:31:28;;;;;;;3.10;1.50;;;;;;;16.75;57.12;99945.44;4962686;29;20027;-77
2021/12/31 03:33:54;;;;;;;2.83;1.60;;;;;;;16.76;57.19;99944.56;4961469;28;20132;-77
2021/12/31 03:36:20;;;;;;;2.60;1.45;;;;;;;16.72;57.33;99940.28;4960471;29;20055;-77
2021/12/31 03:38:45;;;;;;;2.00;1.42;;;;;;;16.71;57.30;99938.56;4961287;29;20471;-77
2021/12/31 03:41:11;;;;;;;2.53;1.50;;;;;;;16.73;57.14;99931.47;4961404;29;20027;-77
2021/12/31 03:43:37;;;;;;;2.25;1.50;;;;;;;16.74;57.25;99925.28;4944405;28;20027;-77
2021/12/31 03:46:02;;;;;;;2.45;1.58;;;;;;;16.71;57.31;99931.50;4961533;28;20358;-77
2021/12/31 03:48:28;;;;;;;2.80;1.65;;;;;;;16.71;57.09;99928.88;4962585;28;20023;-77
2021/12/31 03:50:54;;;;;;;2.65;1.70;;;;;;;16.74;57.14;99936.69;4943861;29;20440;-77
2021/12/31 03:53:20;;;;;;;2.50;1.50;;;;;;;16.72;57.33;99929.75;4960701;29;20114;-77
2021/12/31 03:55:46;;;;;;;2.30;1.40;;;;;;;16.70;57.35;99932.44;4960772;29;20477;-77
2021/12/31 03:58:12;;;;;;;2.03;1.23;;;;;;;16.69;57.49;99914.91;4960993;28;20110;-77
2021/12/31 04:00:38;;;;;;;1.85;1.38;;;;;;;16.71;57.40;99928.03;4944266;29;20430;-77
2021/12/31 04:03:11;;;;;;;2.90;1.50;;;;;;;16.72;57.12;99924.47;4961363;29;20122;-77
2021/12/31 04:05:41;;;;;;;3.15;1.80;;;;;;;16.71;57.15;99920.13;4945175;29;20031;-77
2021/12/31 04:08:07;;;;;;;2.53;1.48;;;;;;;16.71;57.42;99920.13;4960967;28;20115;-77
2021/12/31 04:10:33;;;;;;;2.47;1.48;;;;;;;16.71;57.47;99917.50;4960839;29;20110;-77
2021/12/31 04:12:59;;;;;;;1.48;1.17;;;;;;;16.69;57.23;99916.66;4943515;29;20090;-77
2021/12/31 04:15:25;;;;;;;2.28;1.48;;;;;;;16.68;57.17;99917.59;4960638;29;20031;-77
2021/12/31 04:17:50;;;;;;;2.72;1.50;;;;;;;16.71;57.13;99928.03;4964295;29;20019;-77
2021/12/31 04:20:22;;;;;;;2.25;1.40;;;;;;;16.70;57.00;99926.31;4970707;29;20034;-77
2021/12/31 04:22:56;;;;;;;1.83;1.40;;;;;;;16.66;57.05;99935.25;4961572;29;20101;-77
2021/12/31 04:25:22;;;;;;;2.15;1.30;;;;;;;16.64;57.11;99933.53;4943065;29;20035;-77
2021/12/31 04:27:48;;;;;;;2.72;1.52;;;;;;;16.62;57.11;99940.59;4959869;28;20041;-77
2021/12/31 04:30:14;;;;;;;2.25;1.20;;;;;;;16.61;57.02;99944.16;4960078;28;20067;-77
2021/12/31 04:32:42;;;;;;;2.50;1.50;;;;;;;16.64;57.31;99951.09;4943135;29;20050;-77
2021/12/31 04:35:08;;;;;;;2.92;1.50;;;;;;;16.63;57.03;99955.53;4960908;29;20026;-77
2021/12/31 04:37:33;;;;;;;2.53;1.60;;;;;;;16.63;56.97;99947.63;4961789;28;20486;-77
2021/12/31 04:39:59;;;;;;;2.13;1.30;;;;;;;16.61;57.06;99959.97;4960588;29;20038;-77
2021/12/31 04:42:25;;;;;;;2.63;1.60;;;;;;;16.62;57.15;99961.69;4942957;29;20031;-77
2021/12/31 04:44:50;;;;;;;2.33;1.52;;;;;;;16.60;57.10;99962.66;4959866;29;20399;-77
2021/12/31 04:47:16;;;;;;;2.05;1.33;;;;;;;16.61;56.91;99970.50;4960008;29;20057;-77
2021/12/31 04:49:42;;;;;;;2.40;1.50;;;;;;;16.60;57.24;99978.44;4943405;29;20094;-77
2021/12/31 04:52:07;;;;;;;2.40;1.45;;;;;;;16.61;57.20;99973.13;4943479;29;20422;-77
2021/12/31 04:54:33;;;;;;;2.65;1.60;;;;;;;16.59;57.03;99976.75;4961703;29;20031;-77
2021/12/31 04:56:59;;;;;;;2.35;1.60;;;;;;;16.58;56.95;99986.44;4959777;29;20027;-77
2021/12/31 04:59:25;;;;;;;2.33;1.30;;;;;;;16.54;56.96;99974.28;4942546;29;20026;-77
2021/12/31 05:01:52;;;;;;;2.25;1.52;;;;;;;16.56;57.11;99971.59;4942620;29;20090;-77
2021/12/31 05:04:17;;;;;;;3.03;1.60;;;;;;;16.51;57.14;99979.63;4959964;29;20362;-77
2021/12/31 05:06:43;;;;;;;2.85;1.52;;;;;;;16.51;56.97;99987.53;4960258;29;20031;-77
2021/12/31 05:09:10;;;;;;;2.50;1.58;;;;;;;16.54;57.05;99987.44;4943403;29;20027;-77
2021/12/31 05:11:36;;;;;;;2.67;1.55;;;;;;;16.47;57.32;99983.31;4967346;28;20391;-77
2021/12/31 05:14:04;;;;;;;2.88;1.70;;;;;;;16.52;57.12;99984.00;4963061;29;20451;-77
2021/12/31 05:16:30;;;;;;;3.10;1.90;;;;;;;16.50;56.92;99999.00;4959010;29;20027;-77
2021/12/31 05:18:55;;;;;;;2.88;1.50;;;;;;;16.55;56.77;100007.59;4959302;29;20034;-77
2021/12/31 05:21:21;;;;;;;2.42;1.45;;;;;;;16.50;56.90;100005.13;4959095;29;20054;-77
2021/12/31 05:23:46;;;;;;;2.55;1.45;;;;;;;16.52;56.93;99997.19;4959486;29;20043;-77
2021/12/31 05:26:12;;;;;;;2.65;1.58;;;;;;;16.48;56.95;100003.47;4960069;28;20031;-77
2021/12/31 05:28:37;;;;;;;2.92;1.60;;;;;;;16.50;57.08;100012.16;4960235;29;20451;-77
2021/12/31 05:31:03;;;;;;;1.67;1.25;;;;;;;16.49;57.01;100008.69;4941690;29;20371;-77
2021/12/31 05:33:29;;;;;;;2.58;1.45;;;;;;;16.49;56.87;100013.06;4942270;29;20035;-77
2021/12/31 05:35:56;;;;;;;2.88;1.60;;;;;;;16.50;57.06;100020.94;4957906;28;20062;-77
2021/12/31 05:38:22;;;;;;;2.70;1.55;;;;;;;16.48;56.89;100017.47;4959671;29;20042;-77
2021/12/31 05:40:48;;;;;;;3.03;1.67;;;;;;;16.49;57.07;100010.44;4959257;28;20023;-77
2021/12/31 05:43:13;;;;;;;3.08;1.63;;;;;;;16.47;56.88;100014.91;4942939;29;20366;-77
2021/12/31 05:45:39;;;;;;;3.05;1.63;;;;;;;16.45;56.90;100012.31;4942424;29;20107;-77
2021/12/31 05:48:05;;;;;;;2.53;1.58;;;;;;;16.43;57.00;100013.28;4941411;29;20027;-77
2021/12/31 05:50:32;;;;;;;2.72;1.65;;;;;;;16.45;56.83;100016.72;4942035;29;20034;-77
2021/12/31 05:53:00;;;;;;;2.58;1.38;;;;;;;16.47;56.99;100020.19;4958609;29;20042;-77
2021/12/31 05:55:27;;;;;;;2.05;1.30;;;;;;;16.44;57.20;100012.38;4942360;29;20423;-77
2021/12/31 05:57:55;;;;;;;2.42;1.55;;;;;;;16.42;56.85;100011.56;4959726;28;20027;-77
2021/12/31 06:00:22;;;;;;;2.65;1.50;;;;;;;16.43;56.99;100018.56;4958804;29;20031;-77
2021/12/31 06:02:47;;;;;;;2.33;1.58;;;;;;;16.38;56.77;100010.81;4941922;29;20024;-77
2021/12/31 06:05:13;;;;;;;2.55;1.40;;;;;;;16.40;57.05;100013.38;4963569;29;20075;-77
2021/12/31 06:07:38;;;;;;;2.22;1.38;;;;;;;16.36;57.05;100016.13;4961190;29;20466;-77
2021/12/31 06:10:04;;;;;;;2.97;1.58;;;;;;;16.41;57.07;100009.84;4958273;28;20722;-77
2021/12/31 06:12:31;;;;;;;2.78;1.50;;;;;;;16.40;57.22;100011.59;4958436;28;20110;-77
2021/12/31 06:14:59;;;;;;;2.63;1.30;;;;;;;16.43;56.63;100010.66;4941981;29;20098;-77
2021/12/31 06:17:27;;;;;;;1.95;1.40;;;;;;;16.42;56.77;100011.56;4959388;29;20022;-77
2021/12/31 06:19:53;;;;;;;2.13;1.42;;;;;;;16.38;56.67;100011.66;4941086;29;20023;-77
2021/12/31 06:22:20;;;;;;;3.25;1.67;;;;;;;16.38;56.98;100016.91;4957787;28;20450;-77
2021/12/31 06:24:46;;;;;;;1.95;1.20;;;;;;;16.35;56.79;100024.94;4957137;29;20046;-77
2021/12/31 06:27:11;;;;;;;2.20;1.40;;;;;;;16.34;57.04;100028.50;4957815;29;20462;-77
2021/12/31 06:29:37;;;;;;;2.35;1.70;;;;;;;16.37;56.82;100031.00;4941261;29;20027;-77
2021/12/31 06:32:03;;;;;;;2.60;1.38;;;;;;;16.36;56.89;100029.28;4961248;28;20026;-77
2021/12/31 06:34:30;;;;;;;1.77;1.17;;;;;;;16.35;56.68;100038.09;4977901;28;20053;-77
2021/12/31 06:36:55;;;;;;;2.78;1.60;;;;;;;16.32;56.65;100030.28;4977084;28;20082;-77
2021/12/31 06:39:21;;;;;;;2.33;1.30;;;;;;;16.34;56.73;100035.50;4976920;28;20065;-77
2021/12/31 06:41:47;;;;;;;2.53;1.60;;;;;;;16.34;56.77;100036.38;4977871;28;20034;-77
2021/12/31 06:44:13;;;;;;;2.72;1.35;;;;;;;16.37;56.68;100046.81;4960227;28;20358;-77
2021/12/31 06:46:39;;;;;;;2.45;1.40;;;;;;;16.33;56.77;100055.72;4977276;28;20022;-77
2021/12/31 06:49:05;;;;;;;2.35;1.30;;;;;;;16.33;57.00;100050.44;4976785;28;20061;-77
2021/12/31 06:51:30;;;;;;;2.55;1.42;;;;;;;16.33;57.03;100047.81;4960474;28;20130;-77
2021/12/31 06:53:56;;;;;;;2.20;1.25;;;;;;;16.31;57.23;100060.19;4960772;28;20049;-77
2021/12/31 06:56:21;;;;;;;2.17;1.30;;;;;;;16.32;56.90;100068.94;4977694;28;20038;-77
2021/12/31 06:58:47;;;;;;;2.35;1.42;;;;;;;16.32;56.74;100079.50;4986979;28;20090;-76
2021/12/31 07:01:12;;;;;;;2.08;1.38;;;;;;;16.30;56.95;100076.91;4979243;28;20035;-77
2021/12/31 07:03:38;;;;;;;2.53;1.40;;;;;;;16.32;57.13;100075.06;4976737;28;20038;-77
2021/12/31 07:06:04;;;;;;;3.00;1.80;;;;;;;16.31;57.17;100083.88;4977608;28;20340;-77
2021/12/31 07:08:29;;;;;;;2.72;1.45;;;;;;;16.32;56.94;100096.13;4959825;28;20469;-77
2021/12/31 07:10:55;;;;;;;2.03;1.38;;;;;;;16.32;57.15;100095.28;4977310;28;20027;-77
2021/12/31 07:13:20;;;;;;;2.00;1.30;;;;;;;16.31;57.31;100086.50;4960580;28;20034;-77
2021/12/31 07:15:49;;;;;;;1.92;1.30;;;;;;;16.31;57.22;100083.88;4976342;28;20042;-77
2021/12/31 07:18:19;;;;;;;2.38;1.27;;;;;;;16.31;57.11;100083.88;4959865;28;20026;-77
2021/12/31 07:20:45;;;;;;;2.90;1.35;;;;;;;16.30;57.13;100082.16;4976640;28;20090;-77
2021/12/31 07:23:12;;;;;;;2.17;1.52;;;;;;;16.33;57.28;100086.47;4976832;28;20042;-77
2021/12/31 07:25:39;;;;;;;2.08;1.30;;;;;;;16.30;57.10;100095.31;4977366;28;20031;-77
2021/12/31 07:28:05;;;;;;;1.92;1.20;;;;;;;16.31;57.17;100104.06;4977844;28;20031;-77
2021/12/31 07:30:31;;;;;;;2.28;1.50;;;;;;;16.28;57.38;100115.59;4977768;28;20046;-77
2021/12/31 07:32:57;;;;;;;2.45;1.30;;;;;;;16.30;57.33;100140.09;4976826;28;20035;-77
2021/12/31 07:35:23;;;;;;;2.58;1.63;;;;;;;16.30;57.42;100142.75;4959588;28;20030;-77
2021/12/31 07:37:50;;;;;;;2.97;1.65;;;;;;;16.29;57.03;100141.00;4976750;28;20410;-77
2021/12/31 07:40:24;;;;;;;2.85;1.67;;;;;;;16.30;57.25;100155.91;4959201;28;20031;-77
2021/12/31 07:42:50;;;;;;;2.78;1.70;;;;;;;16.26;57.24;100164.78;4977737;28;20035;-77
2021/12/31 07:45:16;;;;;;;2.55;1.50;;;;;;;16.26;57.14;100156.06;4960152;28;20026;-77
2021/12/31 07:47:41;;;;;;;2.35;1.45;;;;;;;16.26;56.97;100159.53;4959375;28;20046;-77
2021/12/31 07:50:07;;;;;;;2.13;1.25;;;;;;;16.26;57.08;100170.06;4977823;28;20410;-77
2021/12/31 07:52:33;;;;;;;2.83;1.63;;;;;;;16.25;57.15;100178.88;4968618;28;20031;-77
2021/12/31 07:54:58;;;;;;;2.65;1.60;;;;;;;16.25;56.95;100168.34;4959959;28;20022;-77
2021/12/31 07:57:24;;;;;;;3.25;1.70;;;;;;;16.27;57.05;100177.06;4976067;28;20030;-77
2021/12/31 07:59:49;;;;;;;3.13;1.70;;;;;;;16.26;56.77;100183.22;4978316;28;20035;-77
2021/12/31 08:02:15;;;;;;;3.17;1.95;;;;;;;16.25;56.86;100189.41;4963015;28;20041;-77
2021/12/31 08:04:40;;;;;;;2.92;1.50;;;;;;;16.24;56.78;100183.28;4962936;28;20023;-77
2021/12/31 08:07:06;;;;;;;2.53;1.60;;;;;;;16.25;57.03;100178.88;4980874;28;20382;-77
2021/12/31 08:09:31;;;;;;;3.10;1.70;;;;;;;16.23;57.04;100181.53;4979644;28;20332;-77
2021/12/31 08:11:57;;;;;;;2.65;1.58;;;;;;;16.24;57.03;100198.22;4962568;28;20089;-77
2021/12/31 08:14:23;;;;;;;2.05;1.25;;;;;;;16.21;56.94;100193.03;4979568;28;20030;-77
2021/12/31 08:16:48;;;;;;;2.97;1.73;;;;;;;16.20;57.06;100196.59;4962441;28;20026;-77
2021/12/31 08:19:14;;;;;;;2.85;1.67;;;;;;;16.21;57.00;100230.78;4962706;28;20046;-77
2021/12/31 08:21:40;;;;;;;2.38;1.55;;;;;;;16.18;57.19;100232.63;4962905;28;20030;-77
2021/12/31 08:24:06;;;;;;;3.63;1.73;;;;;;;16.21;57.23;100204.44;4980089;28;20114;-77
2021/12/31 08:26:32;;;;;;;2.78;1.50;;;;;;;16.21;56.90;100206.19;4963103;28;20062;-77
2021/12/31 08:28:57;;;;;;;2.40;1.55;;;;;;;16.21;57.09;100216.72;4979173;28;20038;-77
2021/12/31 08:31:23;;;;;;;2.70;1.60;;;;;;;16.23;57.19;100212.31;4962593;28;20114;-77
2021/12/31 08:33:48;;;;;;;2.75;1.75;;;;;;;16.22;56.94;100214.06;4979535;28;20053;-77
2021/12/31 08:36:14;;;;;;;3.47;1.70;;;;;;;16.21;57.20;100220.25;4979314;28;20062;-77
2021/12/31 08:38:39;;;;;;;3.28;1.73;;;;;;;16.21;57.16;100219.38;4979587;28;20089;-77
2021/12/31 08:41:05;;;;;;;3.20;1.50;;;;;;;16.19;57.29;100215.94;4979557;28;20110;-77
2021/12/31 08:43:30;;;;;;;2.75;1.73;;;;;;;16.21;57.18;100235.16;4981631;28;20031;-76
2021/12/31 08:45:56;;;;;;;2.22;1.40;;;;;;;16.23;56.90;100238.63;4973155;28;20093;-76
2021/12/31 08:48:22;;;;;;;3.15;1.80;;;;;;;16.21;57.17;100235.16;4978812;28;20506;-77
2021/12/31 08:50:47;;;;;;;2.80;1.63;;;;;;;16.21;57.18;100229.91;4961401;28;20130;-77
2021/12/31 08:53:14;;;;;;;2.47;1.60;;;;;;;16.21;56.87;100235.16;4978425;28;20027;-77
2021/12/31 08:55:40;;;;;;;3.45;2.20;;;;;;;16.20;57.06;100243.97;4979842;28;20037;-77
2021/12/31 08:58:06;;;;;;;2.85;1.52;;;;;;;16.20;57.33;100238.72;4962532;28;20030;-77
2021/12/31 09:00:31;;;;;;;3.10;1.88;;;;;;;16.20;57.32;100233.44;4979226;28;20455;-77
2021/12/31 09:02:57;;;;;;;3.10;1.70;;;;;;;16.18;57.27;100232.63;4978839;28;20039;-77
2021/12/31 09:05:23;;;;;;;4.18;2.13;;;;;;;16.19;57.41;100237.00;4961798;28;20062;-77
2021/12/31 09:07:50;;;;;;;3.50;2.00;;;;;;;16.19;57.42;100250.16;4961524;28;20041;-77
2021/12/31 09:10:16;;;;;;;3.40;2.00;;;;;;;16.21;57.14;100261.50;4979107;28;20034;-77
2021/12/31 09:12:44;;;;;;;3.35;2.17;;;;;;;16.19;57.49;100268.59;4978045;28;20022;-77
2021/12/31 09:15:10;;;;;;;3.35;1.88;;;;;;;16.20;57.31;100265.03;4961042;28;20366;-77
2021/12/31 09:17:36;;;;;;;3.83;2.20;;;;;;;16.18;57.34;100272.97;4962019;28;20127;-77
2021/12/31 09:20:02;;;;;;;3.05;1.88;;;;;;;16.19;57.44;100281.75;4978973;28;20460;-77
2021/12/31 09:22:28;;;;;;;3.65;2.05;;;;;;;16.22;57.29;100279.03;4961571;28;20027;-77
2021/12/31 09:24:55;;;;;;;4.47;2.25;;;;;;;16.21;57.19;100279.94;4978916;28;20026;-77
2021/12/31 09:27:21;;;;;;;4.28;2.17;;;;;;;16.20;57.60;100296.66;4978538;28;20031;-77
2021/12/31 09:29:47;;;;;;;3.30;2.08;;;;;;;16.21;57.25;100303.63;4962422;28;20045;-77
2021/12/31 09:32:13;;;;;;;4.03;2.05;;;;;;;16.21;57.64;100314.16;4962185;28;20030;-77
2021/12/31 09:34:42;;;;;;;3.90;2.05;;;;;;;16.20;57.35;100294.00;4978226;28;20026;-77
2021/12/31 09:37:08;;;;;;;3.53;2.03;;;;;;;16.21;57.55;100287.84;4979014;28;20094;-77
2021/12/31 09:39:34;;;;;;;4.05;2.10;;;;;;;16.19;57.67;100280.00;4990086;28;20027;-77
2021/12/31 09:41:59;;;;;;;3.50;2.15;;;;;;;16.20;57.47;100286.13;4978235;28;20031;-77
2021/12/31 09:44:25;;;;;;;4.30;2.20;;;;;;;16.21;57.74;100285.19;4978450;28;20050;-77
2021/12/31 09:46:50;;;;;;;3.47;2.17;;;;;;;16.22;57.68;100294.81;4961417;28;20415;-77
2021/12/31 09:49:16;;;;;;;4.25;2.47;;;;;;;16.22;57.59;100297.47;4977951;28;20118;-77
2021/12/31 09:51:43;;;;;;;3.72;2.28;;;;;;;16.21;57.52;100307.16;4962032;28;20090;-77
2021/12/31 09:54:10;;;;;;;4.60;2.28;;;;;;;16.22;57.54;100311.50;4977459;28;20466;-77
2021/12/31 09:56:39;;;;;;;3.50;2.00;;;;;;;16.21;57.51;100315.03;4960387;28;20111;-77
2021/12/31 09:59:05;;;;;;;4.15;2.17;;;;;;;16.21;57.55;100319.44;4977824;28;20022;-77
2021/12/31 10:01:31;;;;;;;3.97;2.22;;;;;;;16.22;57.62;100331.69;4960738;28;20125;-77
2021/12/31 10:03:57;;;;;;;3.65;2.17;;;;;;;16.21;57.73;100324.69;4977180;28;20154;-77
2021/12/31 10:06:24;;;;;;;3.08;2.03;;;;;;;16.22;57.45;100326.41;4977661;28;20038;-77
2021/12/31 10:08:50;;;;;;;3.55;2.30;;;;;;;16.24;57.73;100333.38;4978343;28;20027;-76
2021/12/31 10:11:20;;;;;;;4.55;2.05;;;;;;;16.22;57.66;100343.09;4978131;28;20370;-77
2021/12/31 10:14:03;;;;;;;3.60;2.20;;;;;;;16.23;57.65;100343.97;4979241;28;20026;-78
2021/12/31 10:16:32;;;;;;;3.90;2.20;;;;;;;16.24;57.72;100345.69;4978148;28;20030;-78
2021/12/31 10:19:09;;;;;;;3.35;2.10;;;;;;;16.25;57.29;100347.41;4978154;28;20031;-78
2021/12/31 10:21:35;;;;;;;3.67;1.98;;;;;;;16.27;57.49;100345.59;4961350;28;20398;-78
2021/12/31 10:24:20;;;;;;;3.15;1.98;;;;;;;16.28;57.58;100352.63;4977634;28;20054;-78
2021/12/31 10:26:45;;;;;;;3.42;1.88;;;;;;;16.29;57.48;100353.47;4961376;28;20027;-78
2021/12/31 10:29:11;;;;;;;3.50;2.00;;;;;;;16.27;57.32;100350.88;4961271;28;20094;-78
2021/12/31 10:31:43;;;;;;;2.97;1.80;;;;;;;16.29;57.40;100353.47;4969456;28;20038;-78
2021/12/31 10:34:24;;;;;;;3.83;2.28;;;;;;;16.30;57.51;100361.34;4981809;28;20022;-78
2021/12/31 10:36:50;;;;;;;3.75;1.88;;;;;;;16.29;57.56;100356.09;4959955;28;20141;-78
2021/12/31 10:39:19;;;;;;;3.65;2.00;;;;;;;16.30;57.48;100363.09;4962351;28;20106;-78
2021/12/31 10:41:49;;;;;;;3.35;1.90;;;;;;;16.33;57.57;100355.13;4958479;29;20031;-78
2021/12/31 10:44:15;;;;;;;3.47;1.88;;;;;;;16.30;57.44;100350.81;4941925;28;20052;-78
2021/12/31 10:46:41;;;;;;;3.60;2.28;;;;;;;16.30;57.56;100345.53;4958720;29;20463;-78
2021/12/31 10:49:10;;;;;;;2.88;1.85;;;;;;;16.30;57.52;100345.53;4941571;29;20030;-78
2021/12/31 10:51:46;;;;;;;3.05;1.80;;;;;;;16.31;57.41;100326.19;4957641;29;20462;-75
2021/12/31 10:57:34;;;;;;;3.30;1.85;;;;;;;16.34;57.35;100323.47;4940913;29;20032;-77
2021/12/31 11:00:00;;;;;;;4.30;2.22;;;;;;;16.34;57.41;100315.59;4957769;28;20027;-77
2021/12/31 11:02:26;;;;;;;4.13;2.03;;;;;;;16.34;57.26;100310.31;4958253;29;20506;-77
2021/12/31 11:04:52;;;;;;;3.13;1.80;;;;;;;16.34;57.30;100307.69;4940880;29;20038;-77
2021/12/31 11:07:18;;;;;;;3.47;2.10;;;;;;;16.36;57.36;100305.84;4958449;28;20034;-77
2021/12/31 11:09:45;;;;;;;3.45;2.00;;;;;;;16.34;57.26;100299.78;4926303;29;20468;-77
2021/12/31 11:12:12;;;;;;;4.32;2.15;;;;;;;16.37;57.46;100307.56;4941315;29;20027;-77
2021/12/31 11:14:38;;;;;;;4.03;2.05;;;;;;;16.38;57.33;100311.09;4957644;28;20451;-77
2021/12/31 11:17:04;;;;;;;4.03;2.13;;;;;;;16.37;57.24;100312.84;4958149;28;20333;-77
2021/12/31 11:19:30;;;;;;;4.00;2.10;;;;;;;16.41;57.38;100325.94;4941713;29;20027;-77
2021/12/31 11:21:55;;;;;;;3.50;2.05;;;;;;;16.38;57.43;100317.19;4958382;28;20023;-77
2021/12/31 11:24:30;;;;;;;3.30;1.83;;;;;;;16.40;57.09;100305.75;4944178;28;20386;-77
2021/12/31 11:27:17;;;;;;;2.63;1.60;;;;;;;16.41;57.36;100307.50;4946475;29;20474;-77
2021/12/31 11:29:42;;;;;;;2.70;1.98;;;;;;;16.42;57.44;100307.44;4939273;28;20027;-77
2021/12/31 11:32:08;;;;;;;4.35;2.00;;;;;;;16.42;57.60;100307.44;4956816;29;20094;-77
2021/12/31 11:34:35;;;;;;;3.17;2.00;;;;;;;16.44;57.21;100299.50;4958496;28;20027;-77